Time;durP1;ratioP1;P1;durP2;ratioP2;P2;SDS_P1;SDS_P2;PMS_P1;PMS_P2;Temp;Humidity;BMP_temperature;BMP_pressure;BME280_temperature;BME280_humidity;BME280_pressure;Samples;Min_cycle;Max_cycle;Signal;HPM_P1;HPM_P2
2022/01/06 00:01:01;;;;;;;5.28;0.93;;;5.80;88.90;;;;;;5020999;28;37744;-59
2022/01/06 00:03:31;;;;;;;9.23;1.40;;;5.70;88.60;;;;;;5020238;28;38769;-59
2022/01/06 00:06:02;;;;;;;10.57;1.20;;;5.70;88.20;;;;;;5021015;28;38747;-59
2022/01/06 00:08:29;;;;;;;7.00;1.10;;;5.70;88.10;;;;;;5020736;28;39377;-59
2022/01/06 00:10:58;;;;;;;6.03;0.93;;;5.60;88.10;;;;;;5021008;28;38105;-59
2022/01/06 00:13:32;;;;;;;7.47;1.25;;;5.70;88.30;;;;;;5021738;28;39171;-59
2022/01/06 00:16:11;;;;;;;12.55;1.52;;;5.70;88.40;;;;;;5020600;28;36495;-59
2022/01/06 00:24:08;;;;;;;9.93;1.63;;;5.50;88.70;;;;;;5020586;28;38321;-59
2022/01/06 00:26:36;;;;;;;13.95;1.77;;;5.50;88.90;;;;;;5019573;28;35212;-59
2022/01/06 00:29:04;;;;;;;10.18;1.85;;;5.50;89.10;;;;;;5020843;28;37341;-59
2022/01/06 00:31:32;;;;;;;16.13;2.47;;;5.50;89.40;;;;;;5019703;28;37928;-59
2022/01/06 00:33:59;;;;;;;13.27;2.60;;;5.50;89.60;;;;;;5020605;28;38499;-59
2022/01/06 00:36:27;;;;;;;16.13;2.70;;;5.50;89.70;;;;;;5019876;28;35460;-59
2022/01/06 00:38:54;;;;;;;20.67;2.05;;;5.50;89.70;;;;;;5020558;28;40061;-59
2022/01/06 00:41:22;;;;;;;15.70;2.80;;;5.50;89.90;;;;;;5020422;28;37835;-59
2022/01/06 00:43:50;;;;;;;28.02;3.42;;;5.50;89.90;;;;;;5020759;28;37301;-59
2022/01/06 00:46:18;;;;;;;15.40;2.47;;;5.50;90.00;;;;;;5019537;28;37818;-59
2022/01/06 00:48:45;;;;;;;16.60;2.33;;;5.50;90.00;;;;;;5018940;28;37321;-59
2022/01/06 00:51:12;;;;;;;18.35;2.30;;;5.50;90.10;;;;;;5020055;28;37605;-59
2022/01/06 00:53:40;;;;;;;11.75;2.20;;;5.60;90.10;;;;;;5020195;28;36342;-59
2022/01/06 00:56:07;;;;;;;23.52;2.58;;;5.60;90.10;;;;;;5020921;28;36609;-59
2022/01/06 00:58:34;;;;;;;18.88;2.78;;;5.60;90.10;;;;;;5019073;28;37729;-59
2022/01/06 01:01:03;;;;;;;16.17;2.72;;;5.70;90.10;;;;;;5020910;28;38929;-59
2022/01/06 01:03:31;;;;;;;17.58;3.05;;;5.70;90.00;;;;;;5020429;28;36222;-59
2022/01/06 01:05:58;;;;;;;14.93;2.40;;;5.70;90.00;;;;;;5019648;28;35994;-59
2022/01/06 01:08:27;;;;;;;15.07;2.47;;;5.60;89.80;;;;;;5019438;28;37489;-59
2022/01/06 01:10:56;;;;;;;14.70;2.75;;;5.60;89.90;;;;;;5021447;28;38270;-59
2022/01/06 01:13:29;;;;;;;14.73;2.08;;;5.60;89.70;;;;;;5019915;28;39931;-59
2022/01/06 01:16:01;;;;;;;13.68;2.20;;;5.60;89.70;;;;;;5019136;28;37391;-59
2022/01/06 01:18:29;;;;;;;12.40;1.98;;;5.60;89.60;;;;;;5020439;28;38409;-59
2022/01/06 01:20:57;;;;;;;14.10;2.17;;;5.60;89.60;;;;;;5020342;28;39143;-59
2022/01/06 01:23:24;;;;;;;13.13;1.90;;;5.60;89.70;;;;;;5019843;28;36363;-59
2022/01/06 01:25:51;;;;;;;13.30;2.30;;;5.60;89.60;;;;;;5019742;28;36399;-59
2022/01/06 01:28:19;;;;;;;16.35;2.90;;;5.60;89.70;;;;;;5019321;28;38827;-59
2022/01/06 01:31:02;;;;;;;12.80;2.00;;;5.50;89.50;;;;;;5020003;28;37692;-59
2022/01/06 01:33:31;;;;;;;12.82;2.25;;;5.50;89.70;;;;;;5018636;28;37134;-59
2022/01/06 01:35:59;;;;;;;13.25;2.60;;;5.40;90.00;;;;;;5018946;28;35622;-59
2022/01/06 01:38:26;;;;;;;13.90;1.85;;;5.40;90.10;;;;;;5019949;28;37851;-59
2022/01/06 01:40:54;;;;;;;15.88;2.92;;;5.40;90.10;;;;;;5019775;28;38551;-59
2022/01/06 01:43:21;;;;;;;23.52;3.53;;;5.40;90.10;;;;;;5018762;28;36283;-59
2022/01/06 01:45:55;;;;;;;15.18;2.38;;;5.30;90.10;;;;;;5018635;28;36388;-59
2022/01/06 01:48:28;;;;;;;16.73;2.70;;;5.30;90.20;;;;;;5019287;28;37587;-59
2022/01/06 01:50:56;;;;;;;14.65;2.30;;;5.30;90.20;;;;;;5019451;28;37184;-59
2022/01/06 01:53:24;;;;;;;16.58;2.38;;;5.20;90.20;;;;;;5020006;28;38070;-59
2022/01/06 01:55:51;;;;;;;15.95;2.28;;;5.20;90.30;;;;;;5018887;28;36667;-59
2022/01/06 01:58:21;;;;;;;20.05;2.50;;;5.20;90.30;;;;;;5017869;28;36568;-59
2022/01/06 02:00:49;;;;;;;16.95;2.17;;;5.10;90.40;;;;;;5016840;28;37811;-59
2022/01/06 02:03:16;;;;;;;23.60;3.05;;;5.10;90.50;;;;;;5020027;28;37598;-59
2022/01/06 02:05:44;;;;;;;23.63;3.65;;;5.10;90.60;;;;;;5019062;28;36656;-59
2022/01/06 02:08:12;;;;;;;21.17;3.38;;;5.10;90.60;;;;;;5019480;28;37536;-59
2022/01/06 02:10:40;;;;;;;18.10;2.45;;;5.10;90.90;;;;;;5021262;28;38028;-59
2022/01/06 02:13:07;;;;;;;12.65;2.28;;;5.10;90.60;;;;;;5023082;28;37598;-59
2022/01/06 02:15:34;;;;;;;14.05;2.03;;;5.10;90.70;;;;;;5022067;28;36369;-59
2022/01/06 02:18:02;;;;;;;16.38;2.55;;;5.10;90.70;;;;;;5023326;28;38195;-59
2022/01/06 02:20:31;;;;;;;18.90;3.03;;;5.00;90.70;;;;;;5021004;28;39185;-59
2022/01/06 02:22:58;;;;;;;18.65;2.35;;;5.00;90.70;;;;;;5019535;28;38435;-59
2022/01/06 02:25:29;;;;;;;19.30;2.75;;;5.00;90.70;;;;;;5019511;28;35443;-59
2022/01/06 02:27:57;;;;;;;15.90;2.28;;;5.10;90.70;;;;;;5020106;28;37552;-59
2022/01/06 02:30:26;;;;;;;12.05;2.65;;;5.00;90.70;;;;;;5021443;28;37799;-59
2022/01/06 02:32:54;;;;;;;12.65;2.67;;;5.00;90.70;;;;;;5021974;28;37177;-59
2022/01/06 02:35:24;;;;;;;17.17;2.47;;;5.00;90.70;;;;;;5020685;28;35930;-59
2022/01/06 02:37:52;;;;;;;13.65;2.58;;;5.00;90.70;;;;;;5021670;28;36251;-59
2022/01/06 02:40:21;;;;;;;10.45;1.88;;;5.00;90.60;;;;;;5023340;28;36531;-59
2022/01/06 02:42:51;;;;;;;12.73;2.10;;;5.00;90.60;;;;;;5021915;28;38880;-59
2022/01/06 02:45:20;;;;;;;16.90;3.00;;;5.00;90.60;;;;;;5020512;28;36141;-59
2022/01/06 02:47:48;;;;;;;19.45;2.55;;;5.00;90.50;;;;;;5022649;28;37751;-59
2022/01/06 02:50:17;;;;;;;12.77;2.47;;;5.00;90.50;;;;;;5019596;28;37286;-59
2022/01/06 02:52:44;;;;;;;15.30;2.13;;;5.00;90.50;;;;;;5022670;28;37184;-59
2022/01/06 02:55:15;;;;;;;12.52;2.15;;;5.00;90.40;;;;;;5020279;28;36402;-59
2022/01/06 02:57:43;;;;;;;14.95;2.20;;;4.90;90.30;;;;;;5021486;28;37308;-59
2022/01/06 03:00:13;;;;;;;17.92;2.88;;;4.90;90.30;;;;;;5021923;28;41381;-59
2022/01/06 03:02:42;;;;;;;18.00;2.38;;;4.90;90.30;;;;;;5021716;28;37732;-59
2022/01/06 03:05:10;;;;;;;16.90;2.10;;;4.90;90.30;;;;;;5022111;28;37229;-59
2022/01/06 03:07:38;;;;;;;13.48;2.22;;;4.90;90.30;;;;;;5021533;28;37317;-59
2022/01/06 03:10:08;;;;;;;19.50;2.75;;;4.80;90.30;;;;;;5021113;28;38384;-59
2022/01/06 03:12:40;;;;;;;12.25;2.60;;;4.80;90.20;;;;;;5021790;28;36160;-59
2022/01/06 03:15:09;;;;;;;16.42;2.63;;;4.80;90.20;;;;;;5021145;28;35408;-59
2022/01/06 03:17:37;;;;;;;15.85;2.42;;;4.80;90.20;;;;;;5019600;28;36483;-59
2022/01/06 03:20:06;;;;;;;13.82;2.20;;;4.70;90.10;;;;;;5019014;28;39070;-59
2022/01/06 03:22:33;;;;;;;17.05;2.13;;;4.70;90.30;;;;;;5018841;28;37328;-59
2022/01/06 03:25:01;;;;;;;11.15;2.05;;;4.70;89.90;;;;;;5020576;28;38017;-59
2022/01/06 03:27:28;;;;;;;11.77;2.00;;;4.70;89.70;;;;;;5019781;28;37509;-59
2022/01/06 03:29:57;;;;;;;16.60;2.67;;;4.60;89.70;;;;;;5019643;28;38413;-59
2022/01/06 03:32:25;;;;;;;15.27;2.95;;;4.60;89.30;;;;;;5021253;28;37403;-59
2022/01/06 03:34:52;;;;;;;15.55;2.70;;;4.60;89.30;;;;;;5020466;28;35347;-59
2022/01/06 03:37:20;;;;;;;13.40;2.17;;;4.60;89.40;;;;;;5021260;28;37552;-59
2022/01/06 03:39:47;;;;;;;24.10;3.65;;;4.60;89.20;;;;;;5020211;28;38244;-59
2022/01/06 03:42:15;;;;;;;13.18;2.88;;;4.60;89.30;;;;;;5021014;28;36122;-59
2022/01/06 03:44:42;;;;;;;16.08;2.45;;;4.50;88.80;;;;;;5020891;28;36899;-59
2022/01/06 03:47:11;;;;;;;10.50;2.28;;;4.30;88.80;;;;;;5021009;28;38531;-59
2022/01/06 03:49:38;;;;;;;13.93;2.13;;;4.30;88.90;;;;;;5020722;28;37952;-59
2022/01/06 03:52:06;;;;;;;23.90;3.90;;;4.20;89.00;;;;;;5019705;28;36479;-59
2022/01/06 03:54:33;;;;;;;12.80;2.40;;;4.10;89.20;;;;;;5021358;28;36121;-59
2022/01/06 03:57:01;;;;;;;13.35;2.30;;;4.00;89.50;;;;;;5021575;28;37555;-59
2022/01/06 03:59:28;;;;;;;13.90;2.05;;;4.00;89.60;;;;;;5021088;28;36503;-59
2022/01/06 04:01:55;;;;;;;13.85;2.63;;;3.90;89.50;;;;;;5019958;28;37134;-59
2022/01/06 04:04:24;;;;;;;13.57;3.08;;;3.80;89.70;;;;;;5020918;28;36699;-59
2022/01/06 04:06:51;;;;;;;12.95;1.77;;;3.80;90.00;;;;;;5021071;28;38684;-59
2022/01/06 04:09:19;;;;;;;14.85;3.08;;;3.60;90.00;;;;;;5021780;28;36411;-59
2022/01/06 04:11:46;;;;;;;19.08;1.88;;;3.60;90.00;;;;;;5020857;28;37473;-59
2022/01/06 04:14:13;;;;;;;7.72;1.63;;;3.50;90.10;;;;;;5020699;28;35719;-59
2022/01/06 04:16:41;;;;;;;11.35;2.10;;;3.50;90.20;;;;;;5020603;28;37767;-59
2022/01/06 04:19:09;;;;;;;13.82;2.35;;;3.40;90.30;;;;;;5020021;28;37402;-59
2022/01/06 04:21:37;;;;;;;13.02;2.63;;;3.40;90.50;;;;;;5020377;28;37468;-59
2022/01/06 04:24:05;;;;;;;12.82;1.58;;;3.30;90.40;;;;;;5019438;28;36628;-59
2022/01/06 04:26:33;;;;;;;11.80;2.17;;;3.30;90.50;;;;;;5020636;28;36371;-59
2022/01/06 04:29:00;;;;;;;10.80;2.05;;;3.30;90.50;;;;;;5020569;28;38919;-59
2022/01/06 04:31:27;;;;;;;16.05;2.58;;;3.30;90.60;;;;;;5020374;28;39037;-59
2022/01/06 04:33:55;;;;;;;14.52;2.60;;;3.30;90.70;;;;;;5018813;28;37457;-59
2022/01/06 04:36:22;;;;;;;11.82;1.90;;;3.30;90.70;;;;;;5020168;28;37631;-59
2022/01/06 04:38:51;;;;;;;9.70;1.83;;;3.20;90.80;;;;;;5020403;28;39226;-59
2022/01/06 04:41:18;;;;;;;15.27;1.65;;;3.20;90.70;;;;;;5019827;28;38338;-59
2022/01/06 04:43:45;;;;;;;17.95;2.15;;;3.20;90.80;;;;;;5020855;28;35443;-59
2022/01/06 04:46:13;;;;;;;17.95;2.75;;;3.20;90.90;;;;;;5020355;28;38855;-59
2022/01/06 04:48:40;;;;;;;16.92;2.00;;;3.20;90.80;;;;;;5020279;28;37757;-59
2022/01/06 04:51:07;;;;;;;13.55;2.92;;;3.20;90.90;;;;;;5019376;28;38042;-59
2022/01/06 04:53:35;;;;;;;10.63;2.30;;;3.20;90.80;;;;;;5020140;28;36331;-59
2022/01/06 04:56:04;;;;;;;17.92;2.50;;;3.20;90.90;;;;;;5020614;28;37380;-59
2022/01/06 04:58:32;;;;;;;12.85;2.03;;;3.10;90.80;;;;;;5019539;28;37605;-59
2022/01/06 05:01:00;;;;;;;11.40;2.20;;;3.10;90.90;;;;;;5017874;28;37355;-59
2022/01/06 05:03:27;;;;;;;15.85;2.28;;;3.10;90.90;;;;;;5019685;28;35277;-59
2022/01/06 05:05:54;;;;;;;13.93;2.20;;;3.10;91.00;;;;;;5019101;28;37407;-59
2022/01/06 05:08:22;;;;;;;16.98;2.72;;;3.10;91.00;;;;;;5020659;28;38908;-59
2022/01/06 05:10:49;;;;;;;26.50;3.60;;;3.10;91.00;;;;;;5019728;28;36934;-59
2022/01/06 05:13:18;;;;;;;19.75;3.22;;;3.10;91.00;;;;;;5019847;28;37399;-59
2022/01/06 05:15:45;;;;;;;13.90;2.45;;;3.10;91.10;;;;;;5020120;28;37625;-59
2022/01/06 05:18:12;;;;;;;17.17;3.28;;;3.10;91.00;;;;;;5019378;28;36529;-59
2022/01/06 05:20:42;;;;;;;13.68;2.05;;;3.10;91.00;;;;;;5019007;28;37346;-59
2022/01/06 05:23:10;;;;;;;14.40;1.90;;;3.10;91.10;;;;;;5019554;28;36494;-59
2022/01/06 05:25:38;;;;;;;13.32;2.20;;;3.10;91.10;;;;;;5020013;28;36437;-59
2022/01/06 05:28:05;;;;;;;25.92;3.38;;;3.10;91.10;;;;;;5019561;28;38856;-62
2022/01/06 05:30:34;;;;;;;13.65;1.85;;;3.10;91.20;;;;;;5019590;28;39194;-59
2022/01/06 05:33:01;;;;;;;12.23;2.50;;;3.10;91.10;;;;;;5019695;28;37124;-59
2022/01/06 05:35:29;;;;;;;15.93;2.05;;;3.10;91.20;;;;;;5018126;28;36271;-59
2022/01/06 05:37:56;;;;;;;13.48;2.65;;;3.10;91.20;;;;;;5018251;28;37896;-60
2022/01/06 05:40:24;;;;;;;19.58;4.07;;;3.10;91.30;;;;;;5017468;28;38674;-60
2022/01/06 05:42:52;;;;;;;12.65;2.28;;;3.20;91.30;;;;;;5017519;28;36395;-59
2022/01/06 05:45:20;;;;;;;17.10;2.47;;;3.10;91.30;;;;;;5017444;28;36228;-61
2022/01/06 05:47:49;;;;;;;16.38;2.40;;;3.10;91.50;;;;;;5018442;28;37042;-61
2022/01/06 05:50:16;;;;;;;19.05;2.67;;;3.10;91.30;;;;;;5017815;28;37548;-60
2022/01/06 05:52:44;;;;;;;13.52;2.10;;;3.20;91.30;;;;;;5017768;28;36580;-60
2022/01/06 05:55:12;;;;;;;10.77;2.10;;;3.20;91.30;;;;;;5017521;28;37804;-60
2022/01/06 05:57:39;;;;;;;15.98;2.75;;;3.20;91.30;;;;;;5019380;28;38441;-61
2022/01/06 06:00:09;;;;;;;14.63;2.90;;;3.30;91.40;;;;;;5017882;28;36975;-61
2022/01/06 06:02:36;;;;;;;19.95;3.40;;;3.20;91.30;;;;;;5018137;28;35269;-61
2022/01/06 06:05:05;;;;;;;16.50;2.60;;;3.30;91.30;;;;;;5017759;28;37690;-61
2022/01/06 06:07:32;;;;;;;14.73;2.72;;;3.30;91.30;;;;;;5017820;28;36538;-61
2022/01/06 06:10:00;;;;;;;26.92;4.28;;;3.30;91.20;;;;;;5018420;28;37776;-61
2022/01/06 06:12:27;;;;;;;21.50;2.97;;;3.30;91.10;;;;;;5017143;28;37160;-61
2022/01/06 06:14:54;;;;;;;10.52;2.22;;;3.30;91.20;;;;;;5016769;28;36986;-61
2022/01/06 06:17:22;;;;;;;24.85;3.35;;;3.30;91.20;;;;;;5017296;28;38605;-62
2022/01/06 06:19:49;;;;;;;16.83;4.43;;;3.20;91.10;;;;;;5018206;28;36340;-61
2022/01/06 06:22:18;;;;;;;12.52;2.33;;;3.20;91.20;;;;;;5018583;28;36683;-61
2022/01/06 06:24:45;;;;;;;9.90;2.15;;;3.20;91.20;;;;;;5017190;28;37854;-61
2022/01/06 06:27:12;;;;;;;15.43;2.22;;;3.20;91.30;;;;;;5019142;28;37784;-61
2022/01/06 06:29:40;;;;;;;17.27;3.08;;;3.10;91.20;;;;;;5018396;28;37125;-62
2022/01/06 06:32:08;;;;;;;11.85;2.10;;;3.10;91.20;;;;;;5018794;28;37105;-61
2022/01/06 06:34:35;;;;;;;14.05;3.33;;;3.10;91.30;;;;;;5017892;28;37540;-62
2022/01/06 06:37:03;;;;;;;13.98;2.05;;;3.10;91.50;;;;;;5018682;28;36534;-61
2022/01/06 06:39:31;;;;;;;12.73;1.90;;;3.10;91.30;;;;;;5019791;28;36831;-61
2022/01/06 06:41:59;;;;;;;17.88;2.85;;;3.10;91.30;;;;;;5019561;28;37558;-62
2022/01/06 06:44:26;;;;;;;15.00;2.45;;;3.10;91.30;;;;;;5019210;28;37940;-61
2022/01/06 06:46:54;;;;;;;17.10;3.03;;;3.10;91.30;;;;;;5019219;28;38234;-61
2022/01/06 06:49:21;;;;;;;12.52;2.35;;;3.10;91.30;;;;;;5018202;28;36791;-61
2022/01/06 06:51:49;;;;;;;13.93;2.38;;;3.10;91.30;;;;;;5017708;28;36242;-61
2022/01/06 06:54:16;;;;;;;21.27;2.50;;;3.10;91.30;;;;;;5018693;28;38765;-61
2022/01/06 06:56:45;;;;;;;18.88;2.60;;;3.10;91.40;;;;;;5020324;28;37875;-61
2022/01/06 06:59:12;;;;;;;16.92;2.95;;;3.10;91.40;;;;;;5021104;28;37615;-62
2022/01/06 07:01:39;;;;;;;16.75;2.53;;;3.10;91.40;;;;;;5019031;28;38170;-62
2022/01/06 07:04:07;;;;;;;17.83;2.10;;;3.10;91.50;;;;;;5021237;28;36236;-62
2022/01/06 07:06:34;;;;;;;15.90;2.38;;;3.20;91.60;;;;;;5020603;28;38348;-61
2022/01/06 07:09:01;;;;;;;15.95;2.83;;;3.20;91.60;;;;;;5020573;28;37412;-62
2022/01/06 07:11:29;;;;;;;18.10;3.80;;;3.20;91.60;;;;;;5021267;28;36275;-61
2022/01/06 07:13:57;;;;;;;13.82;2.25;;;3.30;91.70;;;;;;5022414;28;38573;-61
2022/01/06 07:16:25;;;;;;;12.88;2.33;;;3.30;91.60;;;;;;5022319;28;38812;-61
2022/01/06 07:18:52;;;;;;;18.27;2.60;;;3.30;91.60;;;;;;5020308;28;38131;-61
2022/01/06 07:21:19;;;;;;;18.70;3.05;;;3.30;91.60;;;;;;5020982;28;36172;-61
2022/01/06 07:23:47;;;;;;;16.40;2.33;;;3.40;91.80;;;;;;5018859;28;40108;-61
2022/01/06 07:26:14;;;;;;;15.45;3.45;;;3.30;91.50;;;;;;5020561;28;38096;-61
2022/01/06 07:28:42;;;;;;;18.83;3.00;;;3.30;91.60;;;;;;5021190;28;37534;-61
2022/01/06 07:31:10;;;;;;;15.60;2.50;;;3.30;91.70;;;;;;5020881;28;36902;-61
2022/01/06 07:33:38;;;;;;;14.20;2.80;;;3.30;91.60;;;;;;5021273;28;39263;-61
2022/01/06 07:36:06;;;;;;;18.52;2.60;;;3.40;91.70;;;;;;5021887;28;37907;-61
2022/01/06 07:38:33;;;;;;;16.88;2.13;;;3.40;91.80;;;;;;5020790;28;37428;-61
2022/01/06 07:41:00;;;;;;;13.48;2.70;;;3.40;91.70;;;;;;5021128;28;37068;-61
2022/01/06 07:43:28;;;;;;;13.93;2.30;;;3.40;91.70;;;;;;5021034;28;36343;-61
2022/01/06 07:45:55;;;;;;;18.20;2.60;;;3.40;91.70;;;;;;5020716;28;38699;-61
2022/01/06 07:48:30;;;;;;;19.20;2.42;;;3.40;91.60;;;;;;5018836;28;37247;-61
2022/01/06 07:50:57;;;;;;;13.65;2.38;;;3.40;91.60;;;;;;5020284;28;36983;-61
2022/01/06 07:53:25;;;;;;;20.40;3.28;;;3.40;91.60;;;;;;5019507;28;36274;-61
2022/01/06 07:55:52;;;;;;;18.58;3.00;;;3.40;91.60;;;;;;5021235;28;37911;-61
2022/01/06 07:58:19;;;;;;;16.23;3.50;;;3.40;91.60;;;;;;5020834;28;38481;-62
2022/01/06 08:00:47;;;;;;;17.30;2.35;;;3.40;91.60;;;;;;5020283;28;36611;-61
2022/01/06 08:03:14;;;;;;;23.25;4.57;;;3.40;91.50;;;;;;5020911;28;37447;-61
2022/01/06 08:05:43;;;;;;;34.97;4.75;;;3.40;91.50;;;;;;5021354;28;38568;-61
2022/01/06 08:08:13;;;;;;;11.25;2.55;;;3.50;91.50;;;;;;5020582;28;37405;-61
2022/01/06 08:10:40;;;;;;;21.55;3.53;;;3.50;91.60;;;;;;5019960;28;35979;-61
2022/01/06 08:13:08;;;;;;;15.20;2.30;;;3.50;91.50;;;;;;5021352;28;37790;-61
2022/01/06 08:15:35;;;;;;;16.27;3.00;;;3.60;91.60;;;;;;5021010;28;36399;-61
2022/01/06 08:18:02;;;;;;;16.60;3.22;;;3.60;91.50;;;;;;5020655;28;37882;-61
2022/01/06 08:20:30;;;;;;;19.35;4.38;;;3.70;91.60;;;;;;5019858;28;36332;-61
2022/01/06 08:23:00;;;;;;;43.13;4.43;;;3.80;91.50;;;;;;5018535;28;37133;-61
2022/01/06 08:25:27;;;;;;;16.88;2.33;;;3.90;91.50;;;;;;5020575;28;38326;-61
2022/01/06 08:27:55;;;;;;;23.45;2.95;;;4.00;91.50;;;;;;5020042;28;36124;-61
2022/01/06 08:30:22;;;;;;;18.52;2.83;;;4.10;91.50;;;;;;5020148;28;38970;-61
2022/01/06 08:32:49;;;;;;;20.10;2.60;;;4.20;91.30;;;;;;5020643;28;38327;-61
2022/01/06 08:35:17;;;;;;;21.42;4.10;;;4.30;91.00;;;;;;5020449;28;37958;-61
2022/01/06 08:37:45;;;;;;;17.33;3.00;;;4.40;90.90;;;;;;5020787;28;38346;-61
2022/01/06 08:40:14;;;;;;;19.50;3.42;;;4.40;90.70;;;;;;5020780;28;37010;-61
2022/01/06 08:42:41;;;;;;;21.77;3.88;;;4.50;90.70;;;;;;5021276;28;38315;-61
2022/01/06 08:45:09;;;;;;;16.75;3.42;;;4.60;90.60;;;;;;5020615;28;36805;-61
2022/01/06 08:47:37;;;;;;;19.35;3.40;;;4.70;90.40;;;;;;5020785;28;36924;-61
2022/01/06 08:50:05;;;;;;;23.73;3.20;;;4.80;90.50;;;;;;5019274;28;38036;-61
2022/01/06 08:52:34;;;;;;;23.38;3.45;;;4.90;90.30;;;;;;5019753;28;37391;-62
2022/01/06 08:55:01;;;;;;;17.35;3.30;;;4.90;90.10;;;;;;5019743;28;38088;-62
2022/01/06 08:57:30;;;;;;;21.35;4.57;;;5.00;89.70;;;;;;5019190;28;37608;-61
2022/01/06 08:59:58;;;;;;;20.30;2.75;;;5.10;89.50;;;;;;5021151;28;36953;-62
2022/01/06 09:02:27;;;;;;;14.98;2.92;;;5.20;89.30;;;;;;5020297;28;38402;-62
2022/01/06 09:04:55;;;;;;;18.38;2.92;;;5.30;88.70;;;;;;5020318;28;38324;-62
2022/01/06 09:07:23;;;;;;;23.60;4.10;;;5.30;88.20;;;;;;5019264;28;37568;-62
2022/01/06 09:09:50;;;;;;;19.58;2.90;;;5.40;87.90;;;;;;5020281;28;37068;-62
2022/01/06 09:12:18;;;;;;;17.60;3.15;;;5.40;87.70;;;;;;5020354;28;37977;-62
2022/01/06 09:14:47;;;;;;;22.17;2.97;;;5.50;87.50;;;;;;5019671;28;38234;-62
2022/01/06 09:17:15;;;;;;;15.68;2.92;;;5.60;87.20;;;;;;5019449;28;37345;-62
2022/01/06 09:19:42;;;;;;;18.73;3.58;;;5.70;87.00;;;;;;5019355;28;36714;-62
2022/01/06 09:22:10;;;;;;;15.60;3.17;;;5.90;86.00;;;;;;5019443;28;36369;-62
2022/01/06 09:24:37;;;;;;;24.20;3.40;;;6.10;84.90;;;;;;5019275;28;37836;-63
2022/01/06 09:27:05;;;;;;;18.60;2.90;;;6.30;84.50;;;;;;5019368;28;37581;-62
2022/01/06 09:29:32;;;;;;;23.63;3.72;;;6.40;84.20;;;;;;5020232;28;37322;-63
2022/01/06 09:32:01;;;;;;;23.42;3.15;;;6.50;83.90;;;;;;5018939;28;37549;-62
2022/01/06 09:34:28;;;;;;;21.73;3.47;;;6.60;83.40;;;;;;5019318;28;37918;-62
2022/01/06 09:36:56;;;;;;;24.10;3.40;;;6.70;83.20;;;;;;5020209;28;38911;-62
2022/01/06 09:39:23;;;;;;;13.27;3.45;;;6.80;82.80;;;;;;5019054;28;35256;-62
2022/01/06 09:41:50;;;;;;;21.33;4.35;;;6.80;82.70;;;;;;5018304;28;39329;-62
2022/01/06 09:44:19;;;;;;;18.30;3.97;;;6.90;83.00;;;;;;5019197;28;37838;-62
2022/01/06 09:46:47;;;;;;;17.20;2.83;;;7.00;82.40;;;;;;5019122;28;37565;-62
2022/01/06 09:49:16;;;;;;;22.33;3.78;;;7.20;82.30;;;;;;5017576;28;37317;-62
2022/01/06 09:51:45;;;;;;;16.67;3.42;;;7.40;82.20;;;;;;5017800;28;37793;-62
2022/01/06 09:54:13;;;;;;;14.85;3.15;;;7.60;81.30;;;;;;5017144;28;38437;-63
2022/01/06 09:56:40;;;;;;;16.95;3.33;;;7.90;81.30;;;;;;5017361;28;37562;-63
2022/01/06 09:59:08;;;;;;;22.75;3.85;;;8.10;80.20;;;;;;5018682;28;35304;-62
2022/01/06 10:01:35;;;;;;;17.70;3.78;;;8.40;79.30;;;;;;5018182;28;38635;-62
2022/01/06 10:04:03;;;;;;;26.35;3.53;;;8.60;77.70;;;;;;5019559;28;38977;-62
2022/01/06 10:06:32;;;;;;;17.55;3.35;;;8.80;77.00;;;;;;5019268;28;36348;-62
2022/01/06 10:09:03;;;;;;;14.45;3.40;;;9.00;77.00;;;;;;5020030;28;35348;-62
2022/01/06 10:11:32;;;;;;;15.27;2.80;;;9.10;76.30;;;;;;5018819;28;36455;-62
2022/01/06 10:14:04;;;;;;;19.42;3.65;;;9.10;76.50;;;;;;5020067;28;37788;-62
2022/01/06 10:16:33;;;;;;;15.55;3.13;;;9.10;75.50;;;;;;5019136;28;37413;-62
2022/01/06 10:19:06;;;;;;;23.20;4.32;;;9.10;75.70;;;;;;5019054;28;38828;-62
2022/01/06 10:21:37;;;;;;;15.68;3.10;;;9.00;75.20;;;;;;5018922;28;39039;-62
2022/01/06 10:24:08;;;;;;;16.98;3.50;;;9.00;75.40;;;;;;5018171;28;39231;-62
2022/01/06 10:26:37;;;;;;;13.50;3.80;;;9.00;75.40;;;;;;5019078;28;37431;-62
2022/01/06 10:29:08;;;;;;;20.33;3.92;;;8.90;76.00;;;;;;5018139;28;35927;-62
2022/01/06 10:31:36;;;;;;;12.38;3.03;;;8.80;75.70;;;;;;5002603;28;37710;-62
2022/01/06 10:34:08;;;;;;;16.05;3.67;;;8.70;76.30;;;;;;5003516;28;37756;-62
2022/01/06 10:36:38;;;;;;;16.37;3.07;;;8.60;76.30;;;;;;5003031;28;37415;-62
2022/01/06 10:39:08;;;;;;;18.70;3.60;;;8.50;76.00;;;;;;5003378;28;36316;-62
2022/01/06 10:41:37;;;;;;;16.95;4.13;;;8.40;76.20;;;;;;5003444;28;37849;-62
2022/01/06 10:44:08;;;;;;;22.23;4.30;;;8.40;76.60;;;;;;5002372;28;38721;-62
2022/01/06 10:46:38;;;;;;;18.45;3.72;;;8.30;76.80;;;;;;5002325;28;38159;-62
2022/01/06 10:49:08;;;;;;;22.27;4.25;;;8.30;76.90;;;;;;5001591;28;35340;-62
2022/01/06 10:51:39;;;;;;;18.95;4.28;;;8.30;76.80;;;;;;5001151;28;37606;-62
2022/01/06 10:54:11;;;;;;;17.42;3.13;;;8.40;77.00;;;;;;5002153;28;37916;-62
2022/01/06 10:56:39;;;;;;;15.90;3.13;;;8.30;76.20;;;;;;5002681;28;36712;-62
2022/01/06 10:59:06;;;;;;;12.90;2.95;;;8.30;76.30;;;;;;5001699;28;38569;-62
2022/01/06 11:01:35;;;;;;;11.93;2.35;;;8.30;76.70;;;;;;4999106;28;36456;-62
2022/01/06 11:04:03;;;;;;;13.75;3.60;;;8.20;76.40;;;;;;5002010;28;36650;-62
2022/01/06 11:06:31;;;;;;;16.60;3.55;;;8.20;76.10;;;;;;5001180;28;39990;-62
2022/01/06 11:09:00;;;;;;;13.68;3.33;;;8.10;77.10;;;;;;5000722;28;36681;-62
2022/01/06 11:11:43;;;;;;;21.08;3.35;;;8.20;76.40;;;;;;5001494;28;35545;-61
2022/01/06 11:14:14;;;;;;;26.35;3.55;;;8.10;76.60;;;;;;5000900;28;38909;-62
2022/01/06 11:16:43;;;;;;;18.40;4.07;;;8.10;77.10;;;;;;5000350;28;39460;-62
2022/01/06 11:19:12;;;;;;;15.82;4.05;;;8.10;77.00;;;;;;4998300;28;36160;-62
2022/01/06 11:21:42;;;;;;;16.13;3.38;;;8.00;76.70;;;;;;4999049;28;36408;-62
2022/01/06 11:24:15;;;;;;;19.85;4.40;;;8.00;77.30;;;;;;4996705;28;39528;-62
2022/01/06 11:26:44;;;;;;;15.93;3.60;;;7.90;77.70;;;;;;4999009;28;35512;-62
2022/01/06 11:29:13;;;;;;;13.80;2.75;;;7.80;78.20;;;;;;4999457;28;36324;-62
2022/01/06 11:31:42;;;;;;;16.20;3.08;;;7.80;78.60;;;;;;5002374;28;38923;-62
2022/01/06 11:34:15;;;;;;;14.00;2.80;;;7.70;79.40;;;;;;5002220;28;37849;-62
2022/01/06 11:36:44;;;;;;;17.35;2.88;;;7.70;79.70;;;;;;5003385;28;37430;-63
2022/01/06 11:39:24;;;;;;;16.08;2.85;;;7.70;80.10;;;;;;5004038;28;37279;-62
2022/01/06 11:41:52;;;;;;;20.95;3.47;;;7.70;80.10;;;;;;5001901;28;37689;-62
2022/01/06 11:44:23;;;;;;;20.92;4.53;;;7.90;80.20;;;;;;5001785;28;37630;-62
2022/01/06 11:46:52;;;;;;;16.95;2.67;;;8.10;80.00;;;;;;5003012;28;37298;-62
2022/01/06 11:49:32;;;;;;;16.63;4.18;;;8.40;79.00;;;;;;5003376;28;37495;-62
2022/01/06 11:52:10;;;;;;;14.15;3.25;;;8.70;78.10;;;;;;5001899;28;38067;-62
2022/01/06 11:54:50;;;;;;;19.27;3.67;;;8.80;77.20;;;;;;5002335;28;37092;-62
2022/01/06 11:57:32;;;;;;;16.15;2.83;;;8.90;77.00;;;;;;5001575;28;37683;-62
2022/01/06 12:00:01;;;;;;;19.13;3.13;;;9.00;76.70;;;;;;5002696;28;35204;-62
2022/01/06 12:02:29;;;;;;;19.50;3.03;;;9.10;76.30;;;;;;5003562;28;38660;-62
2022/01/06 12:04:58;;;;;;;22.55;3.72;;;9.20;76.20;;;;;;5004320;28;37401;-62
2022/01/06 12:07:26;;;;;;;15.73;2.70;;;9.10;75.90;;;;;;5002362;28;36455;-62
2022/01/06 12:09:59;;;;;;;13.35;3.05;;;9.00;76.80;;;;;;5004035;28;35462;-62
2022/01/06 12:12:37;;;;;;;14.63;2.50;;;8.90;77.30;;;;;;5004308;28;38597;-62
2022/01/06 12:15:10;;;;;;;17.67;2.65;;;8.80;77.80;;;;;;5003216;28;37815;-62
2022/01/06 12:17:38;;;;;;;18.25;2.47;;;8.70;78.40;;;;;;5003941;28;37195;-62
2022/01/06 12:20:07;;;;;;;14.82;2.80;;;8.70;78.90;;;;;;5003192;28;36978;-62
2022/01/06 12:22:34;;;;;;;16.75;3.33;;;8.60;79.00;;;;;;5002676;28;38782;-63
2022/01/06 12:25:05;;;;;;;17.92;3.15;;;8.50;79.20;;;;;;5003713;28;38337;-62
2022/01/06 12:27:43;;;;;;;13.13;2.30;;;8.50;79.50;;;;;;5000906;28;37953;-62
2022/01/06 12:30:12;;;;;;;30.77;5.28;;;8.40;79.80;;;;;;5005747;28;36281;-62
2022/01/06 12:32:41;;;;;;;17.60;2.90;;;8.30;80.10;;;;;;5019990;28;20120;-62
2022/01/06 12:35:08;;;;;;;19.30;3.95;;;8.20;80.30;;;;;;5019676;28;39949;-62
2022/01/06 12:37:36;;;;;;;17.17;2.53;;;8.20;80.50;;;;;;5018723;28;37508;-63
2022/01/06 12:40:06;;;;;;;18.75;2.67;;;8.20;80.60;;;;;;5019856;28;35331;-62
2022/01/06 12:42:42;;;;;;;19.88;3.88;;;8.20;80.80;;;;;;5019144;28;37316;-62
2022/01/06 12:45:11;;;;;;;12.90;2.17;;;8.20;80.90;;;;;;5018970;28;36546;-62
2022/01/06 12:47:47;;;;;;;14.40;2.42;;;8.20;80.90;;;;;;5017594;28;38056;-63
2022/01/06 12:50:14;;;;;;;15.77;2.20;;;8.10;80.90;;;;;;5018172;28;37573;-62
2022/01/06 12:52:46;;;;;;;15.82;2.72;;;8.10;81.10;;;;;;5017615;28;37501;-62
2022/01/06 12:55:15;;;;;;;17.25;2.40;;;8.10;81.30;;;;;;5018196;28;38714;-63
2022/01/06 12:57:51;;;;;;;14.35;2.40;;;8.00;81.50;;;;;;5018850;28;37602;-62
2022/01/06 13:00:20;;;;;;;19.40;1.90;;;8.00;81.80;;;;;;5019291;28;35248;-62